Time;durP1;ratioP1;P1;durP2;ratioP2;P2;SDS_P1;SDS_P2;PMS_P1;PMS_P2;Temp;Humidity;BMP_temperature;BMP_pressure;BME280_temperature;BME280_humidity;BME280_pressure;Samples;Min_cycle;Max_cycle;Signal;HPM_P1;HPM_P2
2022/02/09 00:01:58;;;;;;;3.10;2.70;;;;;;;9.94;61.04;99243.66;8347772;28;20258;-63
2022/02/09 00:06:05;;;;;;;4.93;2.80;;;;;;;9.93;60.76;99236.75;8348731;28;20254;-62
2022/02/09 00:10:08;;;;;;;4.83;2.87;;;;;;;9.93;60.66;99235.91;8348753;28;20232;-62
2022/02/09 00:14:21;;;;;;;4.77;2.80;;;;;;;9.93;60.49;99239.34;8348686;28;20519;-62
2022/02/09 00:18:34;;;;;;;3.97;2.60;;;;;;;9.98;60.65;99239.25;8348751;28;20239;-62
2022/02/09 00:22:49;;;;;;;3.77;2.83;;;;;;;9.94;60.73;99238.47;8347810;28;20422;-63
2022/02/09 00:27:35;;;;;;;3.30;2.70;;;;;;;9.93;60.59;99236.75;8348572;28;20231;-62
2022/02/09 00:36:18;;;;;;;5.37;2.90;;;;;;;9.90;60.58;99220.44;8347638;28;20232;-62
2022/02/09 01:37:54;;;;;;;7.50;3.87;;;;;;;9.88;60.66;99228.25;8346807;28;20230;-62
2022/02/09 01:59:17;;;;;;;7.30;3.87;;;;;;;9.86;60.90;99205.88;8347321;28;20238;-62
2022/02/09 02:03:20;;;;;;;6.80;3.77;;;;;;;9.93;60.50;99195.34;8350462;28;20573;-62
2022/02/09 02:07:31;;;;;;;5.17;3.73;;;;;;;9.86;60.71;99192.94;8352765;28;20232;-62
2022/02/09 02:11:41;;;;;;;4.77;3.90;;;;;;;9.88;60.46;99184.28;8351851;28;20228;-62
2022/02/09 02:16:09;;;;;;;6.50;3.40;;;;;;;9.95;60.81;99188.41;8351737;28;20239;-62
2022/02/09 02:20:24;;;;;;;6.57;3.60;;;;;;;9.98;60.42;99177.16;8351857;28;20560;-62
2022/02/09 02:33:30;;;;;;;6.03;3.50;;;;;;;10.35;59.78;99169.38;8351240;28;20239;-62
2022/02/09 02:38:03;;;;;;;5.83;3.67;;;;;;;10.47;58.88;99175.16;8351094;28;20224;-62
2022/02/09 02:43:07;;;;;;;5.73;4.40;;;;;;;10.49;58.70;99166.47;8351618;28;20311;-62
2022/02/09 03:09:08;;;;;;;5.87;4.53;;;;;;;10.54;58.42;99176.72;8299012;28;20224;-62
2022/02/09 03:13:14;;;;;;;4.70;3.77;;;;;;;10.50;58.42;99178.53;8350425;28;20228;-63
2022/02/09 03:17:24;;;;;;;5.47;3.53;;;;;;;10.58;58.54;99178.34;8350427;28;20235;-62
2022/02/09 03:21:39;;;;;;;8.03;3.40;;;;;;;10.56;58.60;99180.13;8350301;28;20232;-62
2022/02/09 03:25:54;;;;;;;5.53;3.70;;;;;;;10.46;58.70;99173.47;8350066;28;20554;-62
2022/02/09 03:43:18;;;;;;;4.93;3.60;;;;;;;10.50;58.41;99146.59;8349759;28;20228;-62
2022/02/09 03:47:43;;;;;;;7.97;4.23;;;;;;;10.40;58.24;99139.97;8349203;28;20239;-62
2022/02/09 03:51:56;;;;;;;4.57;3.60;;;;;;;10.44;58.26;99128.63;8348841;28;20223;-62
2022/02/09 03:56:23;;;;;;;6.27;3.67;;;;;;;10.44;58.33;99123.47;8349355;28;20239;-62
2022/02/09 04:00:29;;;;;;;7.67;4.03;;;;;;;10.44;58.14;99137.25;8349072;28;20232;-62
2022/02/09 04:04:32;;;;;;;5.33;3.73;;;;;;;10.50;58.45;99125.88;8348568;28;20239;-63
2022/02/09 04:08:43;;;;;;;5.03;4.00;;;;;;;10.47;58.10;99126.81;8348697;28;20240;-62
2022/02/09 04:12:57;;;;;;;5.17;3.53;;;;;;;10.54;58.06;99130.09;8349034;28;20255;-62
2022/02/09 04:17:12;;;;;;;6.03;4.20;;;;;;;10.46;57.89;99124.28;8348702;28;20429;-62
2022/02/09 04:38:44;;;;;;;5.23;3.60;;;;;;;10.42;58.08;99104.53;8347588;28;20228;-62
2022/02/09 04:43:08;;;;;;;5.50;3.33;;;;;;;10.46;57.83;99103.56;8348280;28;20531;-62
2022/02/09 04:51:47;;;;;;;4.70;3.10;;;;;;;10.27;58.26;99108.31;8336768;28;20503;-63
2022/02/09 04:55:58;;;;;;;5.07;3.13;;;;;;;10.37;57.62;99102.03;8347517;28;20246;-62
2022/02/09 05:00:21;;;;;;;3.87;3.17;;;;;;;10.44;57.11;99093.22;8348085;28;20236;-62
2022/02/09 05:04:45;;;;;;;3.90;3.43;;;;;;;10.49;57.34;99093.09;8347967;28;20237;-63
2022/02/09 05:18:01;;;;;;;3.57;3.17;;;;;;;10.41;57.10;99098.47;8347393;28;20235;-62
2022/02/09 05:26:39;;;;;;;3.67;3.33;;;;;;;10.25;57.32;99097.16;8347073;28;20232;-62
2022/02/09 05:30:45;;;;;;;4.73;3.90;;;;;;;10.25;56.87;99091.97;8346890;28;20231;-63
2022/02/09 05:34:50;;;;;;;3.60;3.30;;;;;;;10.26;57.09;99091.94;8347009;28;20243;-62
2022/02/09 05:38:53;;;;;;;5.63;4.07;;;;;;;10.30;57.08;99096.19;8351405;28;20239;-62
2022/02/09 05:42:56;;;;;;;6.23;4.23;;;;;;;10.25;57.26;99095.41;8353637;28;20577;-62
2022/02/09 05:51:25;;;;;;;5.10;4.47;;;;;;;10.43;56.88;99106.22;8346083;28;20228;-62
2022/02/09 05:55:49;;;;;;;5.77;4.57;;;;;;;10.50;56.32;99108.59;8352998;28;20243;-62
2022/02/09 05:59:52;;;;;;;5.47;4.20;;;;;;;10.42;56.49;99107.13;8352669;28;20231;-62
2022/02/09 06:03:55;;;;;;;5.03;3.93;;;;;;;10.31;55.86;99103.03;8352787;28;20228;-62
2022/02/09 06:07:59;;;;;;;3.87;3.57;;;;;;;10.23;56.24;99111.88;8351604;28;20227;-62
2022/02/09 06:12:10;;;;;;;6.33;3.83;;;;;;;10.31;55.78;99097.00;8351611;28;20224;-62
2022/02/09 06:20:32;;;;;;;5.20;3.70;;;;;;;10.42;55.78;99091.56;8350959;28;20243;-63
2022/02/09 06:24:38;;;;;;;4.20;3.80;;;;;;;10.39;55.79;99102.00;8351046;28;20249;-62
2022/02/09 06:28:41;;;;;;;4.77;3.90;;;;;;;10.45;55.72;99104.44;8351735;28;20240;-62
2022/02/09 06:32:44;;;;;;;5.50;4.07;;;;;;;10.50;55.60;99102.56;8351929;28;20240;-63
2022/02/09 06:36:57;;;;;;;4.73;4.07;;;;;;;10.55;55.71;99111.94;8352020;28;20427;-62
2022/02/09 06:41:02;;;;;;;4.87;4.33;;;;;;;10.50;54.71;99108.59;8349435;28;20233;-62
2022/02/09 06:45:11;;;;;;;5.20;4.70;;;;;;;10.53;55.13;99115.47;8351441;28;20236;-62
2022/02/09 06:49:16;;;;;;;5.50;4.50;;;;;;;10.56;54.85;99113.59;8350864;28;20235;-62
2022/02/09 06:53:30;;;;;;;5.37;4.87;;;;;;;10.60;54.54;99104.03;8351023;28;20235;-62
2022/02/09 06:57:58;;;;;;;4.90;4.50;;;;;;;10.34;54.32;99100.38;8285312;28;20528;-63
2022/02/09 07:02:04;;;;;;;5.23;4.73;;;;;;;10.44;54.52;99108.75;8285284;28;20318;-62
2022/02/09 07:06:07;;;;;;;4.97;4.47;;;;;;;10.41;54.38;99111.41;8285407;28;20540;-62
2022/02/09 07:10:12;;;;;;;4.60;4.20;;;;;;;10.55;54.34;99106.75;8285567;28;20241;-62
2022/02/09 07:14:20;;;;;;;5.17;4.27;;;;;;;10.47;53.99;99106.09;8285157;28;20229;-62
2022/02/09 07:18:24;;;;;;;8.20;4.63;;;;;;;10.55;53.66;99106.75;8285135;28;20240;-62
2022/02/09 07:22:28;;;;;;;17.00;4.70;;;;;;;10.56;53.67;99111.03;8284819;28;20245;-62
2022/02/09 07:26:42;;;;;;;42.53;5.23;;;;;;;10.49;53.59;99093.97;8284452;28;20229;-67
2022/02/09 07:30:47;;;;;;;45.40;5.73;;;;;;;10.45;53.11;99100.13;8284633;28;20248;-63
2022/02/09 07:34:50;;;;;;;9.50;3.90;;;;;;;10.40;53.74;99107.16;8284276;28;20238;-63
2022/02/09 07:38:53;;;;;;;3.73;3.10;;;;;;;10.51;53.39;99102.53;8284529;28;20234;-63
2022/02/09 07:43:00;;;;;;;78.50;6.73;;;;;;;10.50;53.16;99103.41;8284544;28;20256;-63
2022/02/09 07:47:23;;;;;;;11.30;3.33;;;;;;;10.56;53.12;99105.00;8284094;28;20309;-63
2022/02/09 07:51:40;;;;;;;24.07;3.73;;;;;;;10.54;53.33;99114.56;8284070;28;20304;-62
2022/02/09 07:55:43;;;;;;;7.97;3.40;;;;;;;10.60;53.14;99109.19;8320571;28;20404;-63
2022/02/09 07:59:46;;;;;;;4.50;3.23;;;;;;;10.69;53.26;99103.78;8348101;28;20228;-63
2022/02/09 08:03:51;;;;;;;11.83;3.13;;;;;;;10.61;52.84;99112.66;8348797;28;20236;-63
2022/02/09 08:07:54;;;;;;;2.50;2.30;;;;;;;10.69;52.52;99105.53;8348728;28;20232;-62
2022/02/09 08:12:22;;;;;;;2.80;2.60;;;;;;;10.68;52.37;99102.09;8348899;28;20239;-62
2022/02/09 08:30:08;;;;;;;2.77;2.50;;;;;;;10.66;52.42;99090.06;8347699;28;20231;-64
2022/02/09 08:34:12;;;;;;;2.80;2.33;;;;;;;10.80;52.36;99079.34;8347956;28;20239;-64
2022/02/09 08:38:17;;;;;;;3.43;2.43;;;;;;;10.78;52.27;99087.16;8347944;28;20318;-64
2022/02/09 08:42:20;;;;;;;2.50;2.30;;;;;;;10.88;52.36;99085.16;8347790;28;20434;-64
2022/02/09 08:46:23;;;;;;;3.17;2.70;;;;;;;10.93;52.12;99080.72;8347816;28;20236;-64
2022/02/09 08:50:26;;;;;;;4.17;2.80;;;;;;;11.04;52.30;99082.97;8347683;28;20235;-64
2022/02/09 08:54:30;;;;;;;4.87;2.50;;;;;;;11.13;51.83;99083.56;8347535;28;20547;-64
2022/02/09 08:58:33;;;;;;;2.00;1.90;;;;;;;11.21;52.02;99075.56;8347234;28;20223;-64
2022/02/09 09:02:38;;;;;;;3.03;2.67;;;;;;;11.01;51.58;99083.91;8347513;28;20236;-65
2022/02/09 09:06:43;;;;;;;3.70;3.13;;;;;;;11.08;52.09;99082.88;8347227;28;20235;-64
2022/02/09 09:11:06;;;;;;;3.13;2.83;;;;;;;11.14;52.01;99079.25;8348207;28;20242;-64
2022/02/09 10:03:25;;;;;;;3.40;2.17;;;;;;;11.52;50.20;99061.69;8352175;28;20555;-64
2022/02/09 10:33:51;;;;;;;3.13;2.80;;;;;;;11.66;51.38;99062.09;8351519;28;20512;-64
2022/02/09 10:38:00;;;;;;;10.23;8.93;;;;;;;11.89;50.97;99057.94;8351761;28;20231;-64
2022/02/09 10:42:13;;;;;;;4.30;3.77;;;;;;;11.81;51.38;99053.00;8351759;28;20577;-64
2022/02/09 10:46:19;;;;;;;5.13;4.63;;;;;;;12.00;51.23;99047.25;8351711;28;20242;-64
2022/02/09 10:50:26;;;;;;;5.73;5.17;;;;;;;11.99;50.98;99050.72;8351769;28;20254;-64
2022/02/09 10:54:31;;;;;;;5.20;4.43;;;;;;;12.01;51.05;99049.75;8351277;28;20547;-64
2022/02/09 10:58:34;;;;;;;5.57;5.07;;;;;;;11.96;51.23;99045.66;8351050;28;20228;-64
2022/02/09 11:02:38;;;;;;;7.07;5.50;;;;;;;12.07;51.16;99051.31;8351192;28;20240;-64
2022/02/09 11:06:42;;;;;;;6.43;5.43;;;;;;;12.01;51.42;99033.34;8351051;28;20228;-64
2022/02/09 11:10:50;;;;;;;3.20;2.90;;;;;;;12.05;51.01;99035.81;8332299;28;20412;-64
2022/02/09 11:14:53;;;;;;;3.20;2.90;;;;;;;12.07;51.93;99033.13;8318290;28;20240;-64
2022/02/09 11:18:57;;;;;;;3.80;2.90;;;;;;;12.12;51.81;99026.88;8317759;28;20508;-64
2022/02/09 11:23:00;;;;;;;3.03;2.70;;;;;;;12.24;50.80;99020.44;8324865;28;20240;-64
2022/02/09 11:27:13;;;;;;;3.07;2.63;;;;;;;12.24;51.38;99015.25;8349301;28;20228;-64
2022/02/09 11:31:21;;;;;;;4.30;3.00;;;;;;;12.42;50.73;99015.50;8348012;28;20234;-64
2022/02/09 11:35:39;;;;;;;3.30;2.67;;;;;;;12.61;50.97;99013.94;8348007;28;20231;-64
2022/02/09 11:39:44;;;;;;;5.17;2.63;;;;;;;12.74;50.57;99011.75;8348299;28;20224;-64
2022/02/09 11:48:24;;;;;;;3.30;2.80;;;;;;;12.33;52.23;98996.72;8346582;28;20661;-64
2022/02/09 11:52:50;;;;;;;4.23;2.83;;;;;;;12.20;52.00;98990.28;8349234;28;20239;-64
2022/02/09 11:57:07;;;;;;;3.00;2.27;;;;;;;12.11;51.71;98988.84;8348942;28;20235;-64
2022/02/09 12:10:19;;;;;;;2.20;1.97;;;;;;;12.46;51.04;98973.78;8344170;28;20228;-64
2022/02/09 12:14:48;;;;;;;2.50;2.10;;;;;;;12.40;50.82;98976.59;8348815;28;20232;-64
2022/02/09 12:19:03;;;;;;;1.70;1.57;;;;;;;12.55;50.59;98980.41;8348338;28;20258;-64
2022/02/09 12:23:13;;;;;;;2.33;2.10;;;;;;;12.97;50.36;98965.88;8348279;28;20232;-65
2022/02/09 12:27:19;;;;;;;3.17;1.63;;;;;;;13.23;48.55;98964.84;8348654;28;20231;-64
2022/02/09 12:31:25;;;;;;;1.67;1.50;;;;;;;13.19;48.64;98963.28;8348688;28;20232;-64
2022/02/09 12:35:29;;;;;;;1.67;1.47;;;;;;;13.86;47.50;98952.78;8348180;28;20291;-64
2022/02/09 12:39:47;;;;;;;3.27;1.40;;;;;;;13.99;46.42;98950.50;8347631;28;20243;-64
2022/02/09 12:43:56;;;;;;;2.13;1.73;;;;;;;14.42;46.50;98945.19;8348014;28;20236;-64
2022/02/09 12:48:01;;;;;;;2.23;1.30;;;;;;;14.29;45.67;98942.25;8347295;28;20232;-64
2022/02/09 12:52:08;;;;;;;2.03;1.60;;;;;;;14.48;45.62;98942.28;8347440;28;20343;-64
2022/02/09 12:56:20;;;;;;;1.83;1.47;;;;;;;14.45;46.02;98942.44;8347803;28;20258;-64
2022/02/09 13:00:29;;;;;;;2.63;1.53;;;;;;;14.75;44.96;98942.81;8347650;28;20231;-64
2022/02/09 13:04:34;;;;;;;2.73;1.57;;;;;;;14.71;45.62;98932.63;8347033;28;20232;-64
2022/02/09 13:08:39;;;;;;;2.40;1.60;;;;;;;14.84;45.03;98929.38;8347585;28;20232;-64
2022/02/09 13:12:43;;;;;;;2.90;2.10;;;;;;;14.53;45.56;98927.31;8347349;28;20232;-64
2022/02/09 13:17:06;;;;;;;2.70;1.80;;;;;;;14.97;44.87;98923.59;8347300;28;20283;-64
2022/02/09 14:10:42;;;;;;;2.17;1.57;;;;;;;16.16;42.62;98885.50;8352546;28;20259;-64
2022/02/09 14:19:18;;;;;;;2.00;1.40;;;;;;;16.48;41.95;98874.25;8352869;28;20231;-64
2022/02/09 14:54:06;;;;;;;1.80;1.67;;;;;;;16.17;42.66;98839.31;8343482;28;20254;-64
2022/02/09 14:58:11;;;;;;;1.93;1.60;;;;;;;16.28;42.69;98843.94;8347748;28;20323;-65
2022/02/09 15:02:20;;;;;;;4.03;1.67;;;;;;;16.26;42.88;98832.72;8350172;28;20239;-64
2022/02/09 15:10:48;;;;;;;2.17;1.60;;;;;;;16.11;42.97;98823.97;8347674;28;20220;-64
2022/02/09 15:15:07;;;;;;;2.30;1.40;;;;;;;15.89;43.20;98827.69;8347557;28;20254;-65
2022/02/09 15:19:18;;;;;;;1.57;1.10;;;;;;;15.68;44.22;98827.00;8346739;28;20220;-64
2022/02/09 15:23:23;;;;;;;1.63;1.30;;;;;;;15.58;44.20;98828.41;8346426;28;20236;-64
2022/02/09 15:27:27;;;;;;;2.00;1.60;;;;;;;15.20;44.79;98818.97;8347037;28;20235;-64
2022/02/09 15:31:37;;;;;;;4.03;1.77;;;;;;;15.15;46.19;98814.91;8349158;28;20234;-65
2022/02/09 15:35:42;;;;;;;3.07;1.80;;;;;;;15.01;45.59;98819.03;8338986;28;20216;-64
2022/02/09 15:39:50;;;;;;;3.10;1.63;;;;;;;14.86;46.46;98814.56;8349405;28;20224;-64
2022/02/09 15:57:31;;;;;;;3.33;2.17;;;;;;;14.28;47.84;98818.13;8347410;28;20543;-64
2022/02/09 16:06:04;;;;;;;7.57;5.13;;;;;;;14.12;49.17;98811.91;8347332;28;20561;-64
2022/02/09 16:10:30;;;;;;;4.77;4.27;;;;;;;14.01;48.98;98813.25;8347607;28;20416;-64
2022/02/09 16:19:41;;;;;;;7.30;6.20;;;;;;;13.76;49.79;98802.22;8345526;28;20248;-64
2022/02/09 16:23:46;;;;;;;8.60;5.13;;;;;;;13.67;50.30;98808.69;8346780;28;20227;-64
2022/02/09 16:37:10;;;;;;;10.50;5.20;;;;;;;13.37;51.52;98798.69;8347262;28;20231;-64
2022/02/09 16:45:27;;;;;;;9.23;5.43;;;;;;;13.15;51.99;98793.50;8315115;28;20550;-64
2022/02/09 16:49:34;;;;;;;10.70;5.27;;;;;;;12.99;52.13;98792.44;8323164;28;20235;-64
2022/02/09 16:53:48;;;;;;;8.90;5.27;;;;;;;12.93;52.19;98801.34;8347189;28;20403;-64
2022/02/09 17:18:43;;;;;;;9.80;8.80;;;;;;;12.53;53.16;98797.75;8346689;28;20244;-64
2022/02/09 17:20:02;;;;;;;14.73;8.90;;;;;;;12.46;53.53;98798.88;8347109;28;20236;-64
2022/02/09 17:24:06;;;;;;;11.50;8.90;;;;;;;12.39;53.30;98798.25;8346839;28;20442;-64
2022/02/09 17:28:14;;;;;;;13.57;11.53;;;;;;;12.28;53.49;98800.41;8346633;28;20434;-63
2022/02/09 17:32:26;;;;;;;33.33;20.70;;;;;;;12.20;53.68;98794.66;8347916;28;20254;-64
2022/02/09 17:36:43;;;;;;;20.20;15.63;;;;;;;12.18;53.04;98804.28;8350941;28;20236;-65
2022/02/09 17:53:53;;;;;;;26.80;21.77;;;;;;;11.19;55.42;98805.13;8343713;28;20236;-64
2022/02/09 17:58:05;;;;;;;25.83;23.00;;;;;;;11.18;55.64;98803.44;8352087;28;20287;-64
2022/02/09 18:02:10;;;;;;;31.50;25.43;;;;;;;11.12;55.49;98788.94;8351613;28;20227;-64
2022/02/09 18:06:20;;;;;;;28.37;21.90;;;;;;;11.03;55.81;98791.81;8351700;28;20539;-64
2022/02/09 18:10:42;;;;;;;29.03;23.97;;;;;;;11.03;55.91;98791.81;8350711;28;20292;-64
2022/02/09 18:15:26;;;;;;;30.53;23.60;;;;;;;10.92;56.18;98791.31;8350162;28;20220;-64
2022/02/09 18:33:11;;;;;;;45.30;34.97;;;;;;;10.68;55.81;98770.50;8351645;28;20251;-64
2022/02/09 18:42:39;;;;;;;49.87;32.47;;;;;;;10.65;55.92;98770.59;8351533;28;20281;-64
2022/02/09 18:46:33;;;;;;;27.03;20.33;;;;;;;10.48;55.05;98773.72;8351118;28;20232;-64
2022/02/09 18:59:39;;;;;;;10.17;8.23;;;;;;;10.32;56.81;98769.91;8351766;28;20231;-64
2022/02/09 19:03:52;;;;;;;9.40;7.00;;;;;;;10.85;55.11;98766.50;8350814;28;20232;-63
2022/02/09 19:08:16;;;;;;;9.60;7.10;;;;;;;10.79;55.07;98775.31;8351363;28;20238;-63
2022/02/09 19:16:51;;;;;;;11.50;6.93;;;;;;;12.60;65.44;98770.59;8350379;28;20251;-64
2022/02/09 19:26:13;;;;;;;16.90;10.07;;;;;;;12.62;51.26;98770.53;8350151;28;20239;-64
2022/02/09 19:30:00;;;;;;;24.63;17.17;;;;;;;11.26;52.91;98767.72;8343147;28;20231;-64
2022/02/09 19:47:31;;;;;;;25.63;17.30;;;;;;;10.72;53.85;98772.09;8311862;28;20233;-64
2022/02/09 19:51:42;;;;;;;21.87;13.70;;;;;;;10.64;53.62;98774.09;8322628;28;20229;-64
2022/02/09 19:55:52;;;;;;;20.43;15.30;;;;;;;10.52;53.44;98767.53;8348479;28;20436;-64
2022/02/09 19:59:57;;;;;;;26.07;16.97;;;;;;;10.42;53.77;98758.38;8348786;28;20224;-64
2022/02/09 20:04:01;;;;;;;25.00;16.13;;;;;;;10.40;53.75;98759.31;8348222;28;20228;-64
2022/02/09 20:08:06;;;;;;;18.27;14.63;;;;;;;10.38;53.23;98761.94;8348195;28;20236;-65
2022/02/09 20:12:09;;;;;;;19.03;13.17;;;;;;;10.32;53.32;98755.22;8348742;28;20228;-64
2022/02/09 20:16:14;;;;;;;19.43;13.17;;;;;;;10.23;53.48;98755.47;8349273;28;20231;-64
2022/02/09 20:20:24;;;;;;;21.67;15.57;;;;;;;10.15;53.50;98758.28;8349080;28;20232;-64
2022/02/09 20:24:29;;;;;;;22.93;16.07;;;;;;;10.05;53.24;98743.94;8348554;28;20235;-64
2022/02/09 20:28:32;;;;;;;26.53;17.23;;;;;;;10.10;53.67;98746.38;8340196;28;20227;-64
2022/02/09 20:32:39;;;;;;;19.93;15.83;;;;;;;10.09;54.13;98747.25;8348478;28;20235;-64
2022/02/09 20:36:44;;;;;;;22.17;17.20;;;;;;;10.03;53.96;98744.84;8348647;28;20248;-64
2022/02/09 20:40:50;;;;;;;23.97;19.33;;;;;;;9.87;54.21;98734.13;8348040;28;20242;-64
2022/02/09 20:44:58;;;;;;;25.63;20.37;;;;;;;9.92;53.68;98734.84;8348229;28;20342;-64
2022/02/09 20:49:01;;;;;;;28.17;21.17;;;;;;;9.83;54.04;98735.09;8347793;28;20236;-64
2022/02/09 20:53:05;;;;;;;27.43;20.53;;;;;;;9.84;54.36;98729.03;8347188;28;20227;-65
2022/02/09 20:57:09;;;;;;;25.77;19.97;;;;;;;9.82;53.91;98736.81;8344352;28;20424;-64
2022/02/09 21:01:16;;;;;;;22.03;17.03;;;;;;;9.83;53.83;98737.69;8346726;28;20246;-64
2022/02/09 21:05:34;;;;;;;20.30;17.03;;;;;;;9.76;54.17;98743.03;8346764;28;20430;-64
2022/02/09 21:09:47;;;;;;;26.63;19.20;;;;;;;9.75;54.04;98731.00;8344969;28;20231;-64
2022/02/09 21:13:59;;;;;;;27.20;18.60;;;;;;;9.70;54.16;98737.19;8344441;28;20282;-64
2022/02/09 21:18:26;;;;;;;25.67;17.97;;;;;;;9.71;54.15;98734.56;8346493;28;20231;-64
2022/02/09 21:22:53;;;;;;;25.53;17.23;;;;;;;9.62;54.26;98728.81;8346366;28;20224;-64
2022/02/09 21:44:48;;;;;;;21.23;15.67;;;;;;;9.42;53.67;98726.75;8344696;28;20228;-64
2022/02/09 21:58:04;;;;;;;68.33;44.83;;;;;;;9.35;53.35;98713.19;8487700;27;20321;-63
2022/02/09 22:06:49;;;;;;;56.10;38.33;;;;;;;9.18;53.35;98708.47;8471482;28;20420;-64
2022/02/09 22:19:45;;;;;;;38.90;28.20;;;;;;;9.16;53.43;98702.50;8476281;28;20447;-64
2022/02/09 22:24:40;;;;;;;38.73;26.70;;;;;;;9.14;53.35;98691.34;8475689;28;20237;-63
2022/02/09 22:28:30;;;;;;;35.13;23.33;;;;;;;8.97;53.25;98689.22;8475490;28;20233;-64
2022/02/09 22:45:55;;;;;;;27.70;19.83;;;;;;;8.80;53.58;98684.47;8474895;28;20230;-64
2022/02/09 22:50:24;;;;;;;19.57;14.73;;;;;;;8.31;55.50;98680.50;8475283;28;20540;-64
2022/02/09 22:54:30;;;;;;;16.77;12.43;;;;;;;8.69;54.59;98679.56;8474986;28;20233;-64
2022/02/09 22:58:36;;;;;;;14.40;12.60;;;;;;;8.85;53.87;98674.84;8474727;28;20234;-64
2022/02/09 23:02:42;;;;;;;18.03;12.27;;;;;;;8.82;53.32;98669.78;8474944;28;20420;-64
2022/02/09 23:06:54;;;;;;;19.27;11.33;;;;;;;8.79;53.52;98673.28;8465769;28;20506;-64
2022/02/09 23:11:17;;;;;;;17.13;12.40;;;;;;;8.72;53.51;98664.00;8452281;28;20421;-63
2022/02/09 23:15:31;;;;;;;16.60;12.60;;;;;;;8.75;53.46;98661.34;8452087;28;20237;-63
2022/02/09 23:24:17;;;;;;;18.57;11.77;;;;;;;8.61;54.18;98658.28;8451330;28;20234;-63
2022/02/09 23:54:44;;;;;;;15.87;11.57;;;;;;;8.59;53.92;98653.16;8450321;28;20433;-63
